x

Muskegon, Mi (mkgm4) Weather Station

9:50am - Sun 29th May 2016 All times are CDT. -5 hours from GMT.

  • Wind
    18mph, 23mph gusts
  • Air Temp 63°f
  • Sea Pressure 1016mb
  • Muskegon, Mi
  • Muskegon, Mi

More Historic Weather Station data

Upgrade to MSW Pro to gain access to the past 30 days of data for over 8000 Wavebouys and Weather Stations around the globe.

Join Pro

Comparision Forecast

View Surf forecast
   
Sun 05/29 9:50am 18 23 mph 1016mb 63f
9:40am 20 22 mph 1016mb 63f
9:30am 18 21 mph 1016mb 63f
9:20am 17 20 mph 1016mb 62f
9:10am 18 21 mph 1016mb 62f
9:00am 15 17 mph 1016.1mb 61f
8:50am 15 16 mph 1016.1mb 61f
8:40am 15 18 mph 1016mb 62f
8:30am 15 18 mph 1016mb 62f
8:20am 14 16 mph 1016mb 62f
8:10am 14 16 mph 1016mb 61f
8:00am 15 16 mph 1016.1mb 60f
7:50am 14 15 mph 1016.1mb 60f
7:40am 14 16 mph 1016.1mb 60f
7:30am 17 18 mph 1016.1mb 60f
7:20am 17 18 mph 1015.9mb 60f
7:10am 17 20 mph 1015.8mb 60f
7:00am 16 20 mph 1015.8mb 60f
6:50am 17 20 mph 1015.8mb 61f
6:40am 16 20 mph 1015.7mb 61f
6:30am 15 17 mph 1015.5mb 61f
6:20am 16 18 mph 1015.5mb 61f
6:10am 17 20 mph 1015.5mb 61f
6:00am 17 20 mph 1015.5mb 61f
5:50am 17 18 mph 1015.3mb 61f
5:40am 17 20 mph 1015.2mb 61f
5:30am 16 17 mph 1015.2mb 61f
5:20am 16 20 mph 1015.1mb 61f
5:10am 15 16 mph 1014.9mb 62f
5:00am 15 16 mph 1014.8mb 62f
4:50am 16 17 mph 1014.9mb 62f
4:40am 16 18 mph 1014.7mb 63f
4:30am 16 17 mph 1014.3mb 64f
4:20am 15 16 mph 1014.3mb 64f
4:10am 13 15 mph 1014.1mb 63f
4:00am 13 15 mph 1014.2mb 64f
3:50am 15 16 mph 1014.3mb 64f
3:40am 15
mph
1014.3mb 63f
3:30am 14 16 mph 1014mb 64f
3:20am 16 18 mph 1014.1mb 63f
3:10am 15 17 mph 1014.2mb 63f
3:00am 17 18 mph 1014.3mb 63f
2:50am 17 18 mph 1014.2mb 63f
2:40am 16 18 mph 1014.3mb 63f
2:30am 17 20 mph 1014.3mb 63f
2:20am 16 18 mph 1014.3mb 63f
2:10am 11 14 mph 1014.6mb 63f
2:00am 5 7 mph 1014.5mb 63f
1:50am 6 7 mph 1014.3mb 62f
1:40am 5 7 mph 1014.4mb 62f
1:30am 7 8 mph 1014.5mb 62f
1:20am 8
mph
1015.1mb 61f
1:10am 5 7 mph 1015.4mb 61f
1:00am 7 9 mph 1015.5mb 61f
12:50am 8 10 mph 1015.7mb 61f
12:40am 8 9 mph 1015.7mb 60f
12:30am 10 11 mph 1015.7mb 61f
12:20am 8 10 mph 1015.6mb 61f
12:10am 15 18 mph 1015.7mb 62f
12:00am 18 21 mph 1015.8mb 64f
Sat 05/28 11:50pm 24 28 mph 1016mb 63f
11:40pm 11 14 mph 1016mb 62f
11:30pm 16 20 mph 1015.5mb 63f
11:20pm 16 17 mph 1015.4mb 64f
11:10pm 13 14 mph 1015.3mb 64f
11:00pm 15 17 mph 1015.1mb 64f
10:50pm 18 21 mph 1014.9mb 65f
10:40pm 17 18 mph 1014.7mb 66f
10:30pm 17 20 mph 1014.5mb 67f
10:20pm 17 20 mph 1014.1mb 68f
10:10pm 18 20 mph 1014.1mb 69f
10:00pm 18 21 mph 1013.7mb 69f
9:50pm 18 21 mph 1013.7mb 69f
9:40pm 18 20 mph 1013.7mb 70f
9:30pm 18 21 mph 1013.5mb 70f
9:20pm 21 22 mph 1013.5mb 69f
9:10pm 18 22 mph 1013.5mb 70f
9:00pm 17 18 mph 1013.5mb 70f
8:50pm 17 18 mph 1013.7mb 70f
8:40pm 16 17 mph 1013.7mb 69f
8:30pm 16 17 mph 1013.8mb 69f
8:20pm 14 15 mph 1013.8mb 69f
8:10pm 14 15 mph 1013.8mb 69f
8:00pm 16 17 mph 1013.9mb 69f
7:50pm 14 15 mph 1013.8mb 69f
7:40pm 15 16 mph 1013.9mb 69f
7:30pm 14 15 mph 1014mb 69f
7:20pm 14 15 mph 1014.1mb 69f
7:10pm 13 15 mph 1014.1mb 68f
7:00pm 14 15 mph 1014mb 68f
6:50pm 13 14 mph 1014mb 68f
6:40pm 13 14 mph 1013.8mb 68f
6:30pm 14 15 mph 1013.8mb 68f
6:20pm 14 15 mph 1013.8mb 67f
6:10pm 15 16 mph 1013.8mb 68f
6:00pm 15 17 mph 1013.8mb 69f
5:50pm 17 20 mph 1013.8mb 68f
5:40pm 16 17 mph 1013.8mb 68f
5:30pm 15 17 mph 1014.2mb 67f
5:20pm 18 20 mph 1014mb 67f
5:10pm 16 18 mph 1014.2mb 66f
5:00pm 16 17 mph 1014.2mb 65f
4:50pm 16 18 mph 1014.2mb 65f
4:40pm 17 18 mph 1014.2mb 66f
4:30pm 14 16 mph 1014.2mb 66f
4:20pm 16 18 mph 1014.2mb 66f
4:10pm 16 17 mph 1014.2mb 65f
4:00pm 15 16 mph 1014.2mb 65f
3:50pm 17 20 mph 1014.2mb 65f
3:40pm 17 18 mph 1014.4mb 65f
3:30pm 20 23 mph 1014.2mb 65f
3:20pm 21 23 mph 1014.4mb 65f
3:10pm 20 21 mph 1014.4mb 65f
3:00pm 15 17 mph 1014.4mb 66f
2:50pm 15 17 mph 1014.3mb 67f
2:40pm 15 16 mph 1014.3mb 67f
2:30pm 14 16 mph 1014.4mb 68f
2:20pm 14 15 mph 1014.5mb 67f
2:10pm 15 16 mph 1014.4mb 68f
2:00pm 15 17 mph 1014.6mb 68f
1:50pm 16 20 mph 1014.8mb 67f
1:40pm 13 15 mph 1014.8mb 67f
1:30pm 10 13 mph 1014.8mb 67f
1:20pm 13 14 mph 1014.8mb 67f
1:10pm 16 18 mph 1014.8mb 67f
1:00pm 13 15 mph 1014.8mb 68f
12:50pm 11 14 mph 1014.8mb 67f
12:40pm 10 13 mph 1015mb 66f
12:30pm 15 18 mph 1015mb 67f
12:20pm 13 15 mph 1015.1mb 65f
12:10pm 14 16 mph 1014.9mb 66f
12:00pm 14 16 mph 1014.8mb 67f
11:50am 18 21 mph 1014.8mb 67f
11:40am 16 18 mph 1014.8mb 67f
11:30am 18 20 mph 1014.7mb 67f
11:20am 20 21 mph 1014.7mb 66f
11:10am 17 20 mph 1014.7mb 67f
11:00am 16 18 mph 1014.5mb 66f
10:50am 18 21 mph 1014.3mb 67f
10:40am 18 21 mph 1014.3mb 67f
10:30am 21 23 mph 1014.3mb 66f
10:20am 22 24 mph 1014.2mb 67f
10:10am 20 23 mph 1014.2mb 67f
10:00am 21 22 mph 1014.2mb 66f
9:50am 20 22 mph 1014.1mb 66f
9:40am 21 22 mph 1014mb 66f
9:30am 21 23 mph 1014mb 66f
9:20am 22 24 mph 1013.9mb 66f
9:10am 23 25 mph 1013.9mb 66f
9:00am 23 24 mph 1013.8mb 66f
8:50am 24 26 mph 1013.8mb 66f
8:40am 25 26 mph 1013.8mb 67f
8:30am 24 26 mph 1013.8mb 68f
8:20am 24 26 mph 1013.8mb 68f
8:10am 23 25 mph 1013.6mb 68f
8:00am 23 25 mph 1013.2mb 69f
7:50am 23 25 mph 1013.1mb 69f
7:40am 24 26 mph 1012.9mb 69f
7:30am 23 25 mph 1012.9mb 70f
7:20am 23 24 mph 1012.7mb 71f
7:10am 23 25 mph 1012.5mb 71f
7:00am 22 24 mph 1012.5mb 70f
6:50am 24 25 mph 1012.5mb 70f
6:40am 22 24 mph 1012.7mb 70f
6:30am 23 24 mph 1012.7mb 70f
6:20am 22 24 mph 1012.7mb 70f
6:10am 21 23 mph 1012.7mb 70f
6:00am 21 23 mph 1012.7mb 70f
5:50am 21 22 mph 1012.7mb 70f
5:40am 20 21 mph 1012.8mb 71f
5:30am 15 18 mph 1012.8mb 71f
5:20am 15 17 mph 1013.1mb 69f
5:10am 17 20 mph 1013.1mb 69f
5:00am 17 18 mph 1013.1mb 68f
4:50am 17 18 mph 1013.1mb 68f
4:40am 20 22 mph 1013.1mb 68f
4:30am 20 21 mph 1012.9mb 68f
4:20am 21 22 mph 1012.9mb 68f
4:10am 21 22 mph 1013mb 68f
4:00am 20 22 mph 1013.1mb 68f
3:50am 20 22 mph 1013mb 67f
3:40am 18 20 mph 1013mb 66f
3:30am 17 20 mph 1013mb 66f
3:20am 17
mph
1013.1mb 65f
3:10am 17 18 mph 1013mb 65f
3:00am 18 21 mph 1012.9mb 65f
2:50am 16 18 mph 1012.8mb 64f
2:40am 14 16 mph 1012.8mb 64f
2:30am 17 18 mph 1012.8mb 64f
2:20am 18 20 mph 1012.8mb 65f
2:10am 20 21 mph 1012.9mb 65f
2:00am 21 22 mph 1013.1mb 65f
1:50am 22 24 mph 1012.9mb 66f
1:40am 21 23 mph 1012.9mb 66f
1:30am 22 23 mph 1012.9mb 66f
1:20am 22
mph
1012.8mb 66f
1:10am 20 21 mph 1012.8mb 65f
1:00am 17 20 mph 1012.9mb 64f
12:50am 16 18 mph 1013.2mb 64f
12:40am 15 17 mph 1013.3mb 64f
12:30am 16 17 mph 1013.3mb 65f
12:20am 16 17 mph 1013.3mb 64f
12:10am 15 17 mph 1013.4mb 64f
12:00am 15 17 mph 1013.5mb 63f
Fri 05/27 11:50pm 15 16 mph 1013.6mb 64f
11:40pm 17 18 mph 1013.7mb 64f
11:30pm 21 22 mph 1013.7mb 65f
11:20pm 23 26 mph 1013.5mb 67f
11:10pm 17 20 mph 1012.9mb 68f
11:00pm 16 17 mph 1012.9mb 68f
10:50pm 15 16 mph 1013.1mb 67f
10:40pm 16 18 mph 1013.1mb 69f
10:30pm 16 22 mph 1013.2mb 70f
10:20pm 10 15 mph 1012.5mb 71f
10:10pm 8 10 mph 1012.5mb 70f
10:00pm 9 10 mph 1012.7mb 70f
9:50pm 9 10 mph 1012.7mb 69f
9:40pm 9 14 mph 1012.6mb 69f
9:30pm 6 8 mph 1012.6mb 68f
9:20pm 6 7 mph 1012.6mb 66f
9:10pm 8 11 mph 1012.7mb 67f
9:00pm 15 16 mph 1012.7mb 67f
8:50pm 15 16 mph 1012.5mb 69f
8:40pm 7 10 mph 1012.4mb 69f
8:30pm 9 11 mph 1012.3mb 69f
8:20pm 7 10 mph 1012.2mb 69f
8:10pm 7 8 mph 1012.1mb 69f
8:00pm 11 15 mph 1012.3mb 69f
7:50pm 15 17 mph 1012.5mb 69f
7:40pm 13 14 mph 1012.5mb 69f
7:30pm 11 13 mph 1012.4mb 69f
7:20pm 13 15 mph 1012.4mb 70f
7:10pm 5 6 mph 1012mb 69f
7:00pm 2
mph
1011.9mb 68f
6:50pm 5 6 mph 1012.3mb 70f
6:40pm 6 7 mph 1011.6mb 76f
6:30pm 8 10 mph 1011.6mb 78f
6:20pm 8 10 mph 1011.1mb 78f
6:10pm 6 7 mph 1011.3mb 75f
6:00pm 8 10 mph 1011.2mb 76f
5:50pm 7 9 mph 1011.2mb 75f
5:40pm 8 10 mph 1011.1mb 78f
5:30pm 6 8 mph 1011.2mb 78f
5:20pm 7 8 mph 1011.2mb 77f
5:10pm 6 8 mph 1011.4mb 77f
5:00pm 7 10 mph 1011.6mb 76f
4:50pm 5 7 mph 1011.7mb 75f
4:40pm 9 11 mph 1012.1mb 73f
4:30pm 14
mph
1012.5mb 71f
4:20pm 15
mph
1012.5mb 70f
4:10pm 15
mph
1012.9mb 69f
4:00pm 15 16 mph 1013.1mb 69f
3:50pm 15 17 mph 1013.1mb 69f
3:40pm 15 17 mph 1013.2mb 68f
3:30pm 17 20 mph 1013.1mb 70f
3:20pm 17
mph
1013mb 71f
3:10pm 17 18 mph 1013.1mb 71f
3:00pm 16 17 mph 1013.2mb 70f
2:50pm 15 16 mph 1013.1mb 68f
2:40pm 14 15 mph 1013.1mb 68f
2:30pm 14 15 mph 1013.2mb 68f
2:20pm 13 14 mph 1013.1mb 68f
2:10pm 11 13 mph 1013.2mb 66f
2:00pm 14 15 mph 1013.2mb 66f
1:50pm 15 16 mph 1013.2mb 67f
1:40pm 13 16 mph 1013.3mb 68f
1:30pm 14 17 mph 1013.3mb 69f
1:20pm 16 18 mph 1013.8mb 65f
1:10pm 22 23 mph 1014.3mb 63f
1:00pm 10 14 mph 1014.5mb 63f
12:50pm 13 14 mph 1014.6mb 64f
12:40pm 14 16 mph 1014.5mb 64f
12:30pm 14 16 mph 1014.7mb 65f
12:20pm 11 13 mph 1014.7mb 65f
12:10pm 13 14 mph 1014.7mb 65f
12:00pm 11 14 mph 1014.7mb 66f
11:50am 11 14 mph 1014.8mb 68f
11:40am 14 15 mph 1014.8mb 68f
11:30am 14 16 mph 1014.8mb 68f
11:20am 14 16 mph 1014.6mb 68f
11:10am 16 17 mph 1014.3mb 68f
11:00am 14 16 mph 1014.1mb 69f
10:50am 14 15 mph 1014.1mb 68f
10:40am 14 16 mph 1014.1mb 68f
10:30am 13 15 mph 1014.1mb 69f
10:20am 13 14 mph 1014.1mb 68f
10:10am 15 17 mph 1014.1mb 68f
10:00am 15 16 mph 1014.1mb 68f
9:50am 15 17 mph 1014.1mb 67f
9:40am 17 20 mph 1014.4mb 68f
9:30am 17 18 mph 1014.1mb 68f
9:20am 16 17 mph 1013.9mb 69f
9:10am 14 15 mph 1013.7mb 69f
9:00am 15 17 mph 1013.7mb 69f
8:50am 16 17 mph 1013.5mb 68f
8:40am 17 20 mph 1013.4mb 69f
8:30am 17 18 mph 1013.1mb 69f
8:20am 16 18 mph 1013.3mb 67f
8:10am 15 18 mph 1013.5mb 67f
8:00am 16 17 mph 1013.3mb 67f
7:50am 16 17 mph 1013.5mb 67f
7:40am 15 17 mph 1013.8mb 66f
7:30am 17 18 mph 1013.8mb 66f
7:20am 17 20 mph 1013.8mb 66f
7:10am 16 18 mph 1013.7mb 66f
7:00am 17 20 mph 1013.5mb 66f
6:50am 17 18 mph 1013.4mb 65f
6:40am 16 18 mph 1013.4mb 64f
6:30am 17 20 mph 1013.4mb 64f
6:20am 20 24 mph 1013.5mb 64f
6:10am 18 22 mph 1013.4mb 64f
6:00am 18 21 mph 1013.5mb 63f
5:50am 17 20 mph 1013.6mb 62f
5:40am 17 20 mph 1013.5mb 62f
5:30am 18 23 mph 1013.6mb 62f
5:20am 18 21 mph 1013.5mb 62f
5:10am 17 20 mph 1013.5mb 62f
5:00am 18 21 mph 1013.5mb 63f
4:50am 17 21 mph 1013.4mb 62f
4:40am 18 20 mph 1013.3mb 62f
4:30am 16 18 mph 1013.2mb 63f
4:20am 16 17 mph 1013.2mb 63f
4:10am 17 18 mph 1013.3mb 63f
4:00am 17 20 mph 1013.3mb 63f
3:50am 16 18 mph 1013.3mb 64f
3:40am 17 21 mph 1013.3mb 63f
3:30am 17 18 mph 1013.5mb 64f
3:20am 17 20 mph 1013.6mb 64f
3:10am 16 18 mph 1013.4mb 64f
3:00am 15 16 mph 1013.2mb 65f
2:50am 15 17 mph 1013.3mb 65f
2:40am 15 16 mph 1013.1mb 65f
2:30am 15 16 mph 1013.1mb 65f
2:20am 15 17 mph 1013mb 65f
2:10am 17 20 mph 1013mb 66f
2:00am 16 18 mph 1013mb 66f
1:50am 15 16 mph 1012.8mb 67f
1:40am 14 16 mph 1012.6mb 68f
1:30am 14
mph
1012.6mb 67f
1:20am 15
mph
1012.7mb 66f
1:10am 15 16 mph 1012.7mb 65f
1:00am 16 17 mph 1012.7mb 65f
12:50am 14 15 mph 1012.6mb 66f
12:40am 11 13 mph 1012.7mb 66f
12:30am 10 11 mph 1012.7mb 66f
12:20am 11
mph
1012.7mb 66f
12:10am 11
mph
1012.7mb 66f
12:00am 11
mph
1012.6mb 66f
Thu 05/26 11:50pm 10 11 mph 1012.7mb 66f
11:40pm 10
mph
1012.8mb 67f
11:30pm 10 11 mph 1012.7mb 66f
11:20pm 10 11 mph 1012.7mb 66f
11:10pm 11 13 mph 1012.7mb 66f
11:00pm 14 15 mph 1012.5mb 65f
10:50pm 11 13 mph 1012.7mb 65f
10:40pm 13 14 mph 1012.7mb 66f
10:30pm 13 14 mph 1012.8mb 66f
10:20pm 13 14 mph 1013.2mb 66f
10:10pm 13 14 mph 1013.1mb 66f
10:00pm 13 14 mph 1013.3mb 66f
9:50pm 13 14 mph 1013.3mb 66f
9:40pm 13 14 mph 1013.3mb 65f
9:30pm 13 14 mph 1013.5mb 65f
9:20pm 14
mph
1013.2mb 64f
9:10pm 13 14 mph 1013.2mb 65f
9:00pm 14
mph
1012.8mb 65f
8:50pm 13 14 mph 1012.6mb 65f
8:40pm 11
mph
1012.7mb 65f
8:30pm 11 13 mph 1012.5mb 65f
8:20pm 13 14 mph 1012.5mb 65f
8:10pm 14 15 mph 1012.6mb 65f
8:00pm 13 14 mph 1012.3mb 66f
7:50pm 13 14 mph 1012.1mb 66f
7:40pm 13 16 mph 1012mb 66f
7:30pm 13 14 mph 1011.8mb 67f
7:20pm 11 13 mph 1011.4mb 67f
7:10pm 10 11 mph 1011.5mb 67f
7:00pm 10 11 mph 1011.4mb 68f
6:50pm 10 11 mph 1011.2mb 68f
6:40pm 10 11 mph 1011.1mb 68f
6:30pm 10 11 mph 1010.8mb 68f
6:20pm 10 11 mph 1010.5mb 68f
6:10pm 11 13 mph 1010.9mb 68f
6:00pm 10 11 mph 1010.8mb 68f
5:50pm 10
mph
1011.2mb 67f
5:40pm 9 10 mph 1011.3mb 68f
5:30pm 7 8 mph 1011.5mb 68f
5:20pm 8 9 mph 1011.6mb 68f
5:10pm 8 9 mph 1011.7mb 68f
5:00pm 8 10 mph 1011.8mb 68f
4:50pm 9 10 mph 1011.8mb 67f
4:40pm 9 10 mph 1011.6mb 68f
4:30pm 10 13 mph 1011.6mb 68f
4:20pm 9 10 mph 1011.8mb 67f
4:10pm 10 11 mph 1012mb 66f
4:00pm 11 14 mph 1012.3mb 66f
3:50pm 11 14 mph 1012.4mb 66f
3:40pm 10 11 mph 1012.6mb 66f
3:30pm 10 11 mph 1012.7mb 66f
3:20pm 8 10 mph 1012.7mb 65f
3:10pm 9 13 mph 1012.7mb 65f
3:00pm 8 9 mph 1012.7mb 65f
2:50pm 8 9 mph 1012.7mb 65f
2:40pm 8 9 mph 1012.7mb 65f
2:30pm 10 11 mph 1013mb 64f
2:20pm 14 16 mph 1013mb 64f
2:10pm 11 16 mph 1013mb 63f
2:00pm 9 11 mph 1013mb 63f
1:50pm 9 13 mph 1013.1mb 63f
1:40pm 10 13 mph 1013.1mb 64f
1:30pm 13 14 mph 1013.1mb 62f
1:20pm 14 16 mph 1013.1mb 63f
1:10pm 17 20 mph 1013.3mb 64f
1:00pm 18 22 mph 1013.4mb 65f
12:50pm 17 21 mph 1013.6mb 63f
12:40pm 16 20 mph 1013.7mb 63f
12:30pm 18 21 mph 1013.7mb 63f
12:20pm 20 23 mph 1013.6mb 64f
12:10pm 16 17 mph 1013.6mb 63f
12:00pm 16 18 mph 1013.6mb 64f
11:50am 21 22 mph 1013.2mb 64f
11:40am 21 22 mph 1013.1mb 64f
11:30am 20 23 mph 1013mb 64f
11:20am 20 21 mph 1013.3mb 63f
11:10am 18 21 mph 1013.4mb 62f
11:00am 17 21 mph 1013.5mb 61f
10:50am 17 20 mph 1014mb 62f
10:40am 16 18 mph 1014.3mb 61f
10:30am 17 18 mph 1014.2mb 62f
10:20am 16 17 mph 1013.9mb 61f
10:10am 16 18 mph 1014.2mb 61f
10:00am 18 21 mph 1014.4mb 62f
9:50am 20 22 mph 1014.2mb 62f
9:40am 20 22 mph 1014mb 62f
9:30am 20 23 mph 1014.2mb 63f
9:20am 21 24 mph 1014mb 62f
9:10am 20 23 mph 1014.1mb 62f
9:00am 18 22 mph 1014.3mb 62f
8:50am 21 22 mph 1014.2mb 62f
8:40am 18 20 mph 1014mb 62f
8:30am 18 22 mph 1013.9mb 62f
8:20am 20 21 mph 1013.9mb 62f
8:10am 18 21 mph 1013.9mb 62f
8:00am 20 22 mph 1013.9mb 62f
7:50am 18 22 mph 1013.9mb 62f
7:40am 21 23 mph 1013.7mb 62f
7:30am 20 22 mph 1013.9mb 61f
7:20am 17 20 mph 1014.1mb 61f
7:10am 18 21 mph 1014mb 61f
7:00am 18 20 mph 1014mb 61f
6:50am 20 22 mph 1013.8mb 62f
6:40am 20 22 mph 1013.6mb 62f
6:30am 22 24 mph 1013.5mb 62f
6:20am 21 22 mph 1013.5mb 62f
6:10am 21 23 mph 1013.4mb 62f
6:00am 20 23 mph 1013.2mb 61f
5:50am 21 22 mph 1013.1mb 62f
5:40am 20 21 mph 1012.9mb 62f
5:30am 20 22 mph 1012.9mb 62f
5:20am 20 22 mph 1012.9mb 62f
5:10am 21 23 mph 1012.7mb 63f
5:00am 18 21 mph 1012.7mb 63f
4:50am 20 23 mph 1012.7mb 63f
4:40am 20 22 mph 1012.5mb 64f
4:30am 17 21 mph 1012.8mb 64f
4:20am 15 21 mph 1012.7mb 65f
4:10am 17 18 mph 1012.9mb 65f
4:00am 14 15 mph 1013.2mb 65f
3:50am 14 15 mph 1013.3mb 66f
3:40am 14 16 mph 1013.2mb 66f
3:30am 10 14 mph 1013.1mb 66f
3:20am 11 16 mph 1013.2mb 66f
3:10am 11 14 mph 1013.2mb 66f
3:00am 9 14 mph 1013.2mb 66f
2:50am 10 13 mph 1013.3mb 66f
2:40am 9 14 mph 1013.3mb 66f
2:30am 11 15 mph 1013.2mb 66f
2:20am 14 15 mph 1013.2mb 65f
2:10am 15 16 mph 1013.4mb 65f
2:00am 14 16 mph 1013.5mb 64f
1:50am 13 15 mph 1013.4mb 64f
1:40am 14 16 mph 1013.2mb 65f
1:30am 15 17 mph 1013.2mb 66f
1:20am 17 18 mph 1013.2mb 66f
1:10am 15 17 mph 1013.4mb 65f
1:00am 20 21 mph 1013.6mb 65f
12:50am 20 24 mph 1013.7mb 64f
12:40am 20 23 mph 1013.9mb 64f
12:30am 22 24 mph 1013.9mb 63f
12:20am 22 25 mph 1014.1mb 63f
12:10am 22 25 mph 1014.2mb 63f
12:00am 22 26 mph 1014.4mb 62f
Wed 05/25 11:50pm 20 22 mph 1014.7mb 61f
11:40pm 15 18 mph 1015.2mb 60f
11:30pm 13 17 mph 1015.5mb 61f
11:20pm 14 16 mph 1015.2mb 62f
11:10pm 9 11 mph 1015mb 62f
11:00pm 11 16 mph 1014.9mb 62f
10:50pm 10 13 mph 1014.9mb 62f
10:40pm 8 9 mph 1014.9mb 63f
10:30pm 6 7 mph 1014.9mb 63f
10:20pm 3 5 mph 1014.6mb 63f
10:10pm 3
mph
1014.8mb 64f
10:00pm 3 6 mph 1014.9mb 63f
9:50pm 6 7 mph 1015.1mb 63f
9:40pm 6 8 mph 1015.3mb 62f
9:30pm 11 13 mph 1015.1mb 62f
9:20pm 14 15 mph 1015mb 63f
9:10pm 21 22 mph 1014.8mb 64f
9:00pm 23 26 mph 1014.7mb 65f
8:50pm 22 24 mph 1014.4mb 68f
8:40pm 25 29 mph 1013.9mb 72f
8:30pm 7
mph
1012.6mb 76f
8:20pm 6
mph
1012.6mb 76f
8:10pm 5 6 mph 1012.7mb 78f
8:00pm 5 6 mph 1012.8mb 78f
7:50pm 3 6 mph 1013mb 76f
7:40pm 5
mph
1013mb 74f
7:30pm 5
mph
1013mb 76f
7:20pm 3
mph
1013mb 74f
7:10pm 3
mph
1012.8mb 76f
7:00pm 3
mph
1012.8mb 75f
6:50pm 2
mph
1013mb 75f
6:40pm 2
mph
1013mb 76f
6:30pm 1
mph
1013.2mb 75f
6:20pm 1
mph
1013.1mb 76f
6:10pm 1
mph
1013.2mb 75f
6:00pm 1 2 mph 1013.1mb 74f
5:50pm 5
mph
1013.4mb 73f
5:40pm 1 2 mph 1013.2mb 75f
5:30pm 1 2 mph 1013.3mb 74f
5:20pm 1
mph
1013.3mb 74f
5:10pm 2
mph
1013.3mb 75f
5:00pm 1
mph
1013.2mb 75f
4:50pm  -  mph 1013.3mb 75f
4:40pm 1
mph
1013.7mb 75f
4:30pm 3
mph
1013.7mb 74f
4:20pm 3 5 mph 1014.2mb 74f
4:10pm 3
mph
1014.4mb 73f
4:00pm 3 5 mph 1014.4mb 74f
3:50pm 3
mph
1014.4mb 73f